createdAt,value
2018-06-22T00:02:06.837Z,13.90
2018-06-22T00:04:36.515Z,13.90
2018-06-22T00:07:06.177Z,13.90
2018-06-22T00:09:35.695Z,13.90
2018-06-22T00:12:05.486Z,13.90
2018-06-22T00:14:35.425Z,13.90
2018-06-22T00:17:05.141Z,13.90
2018-06-22T00:19:34.504Z,13.90
2018-06-22T00:22:04.070Z,13.80
2018-06-22T00:24:33.755Z,13.80
2018-06-22T00:27:03.456Z,13.70
2018-06-22T00:29:32.802Z,13.70
2018-06-22T00:32:08.753Z,13.70
2018-06-22T00:34:38.299Z,13.70
2018-06-22T00:37:07.962Z,13.60
2018-06-22T00:39:37.470Z,13.60
2018-06-22T00:42:06.942Z,13.60
2018-06-22T00:44:36.624Z,13.50
2018-06-22T00:47:06.060Z,13.50
2018-06-22T00:49:35.973Z,13.50
2018-06-22T00:52:05.373Z,13.50
2018-06-22T00:54:34.956Z,13.50
2018-06-22T00:57:04.414Z,13.40
2018-06-22T00:59:33.936Z,13.40
2018-06-22T01:02:03.579Z,13.40
2018-06-22T01:07:52.725Z,13.40
2018-06-22T01:13:39.323Z,13.30
2018-06-22T01:16:08.849Z,13.30
2018-06-22T01:18:38.226Z,13.30
2018-06-22T01:21:07.620Z,13.30
2018-06-22T01:23:37.187Z,13.30
2018-06-22T01:26:06.797Z,13.30
2018-06-22T01:28:36.474Z,13.20
2018-06-22T01:31:06.055Z,13.20
2018-06-22T01:33:35.503Z,13.10
2018-06-22T01:36:05.029Z,13.10
2018-06-22T01:38:34.874Z,13.10
2018-06-22T01:41:04.720Z,13.10
2018-06-22T01:43:34.243Z,13.20
2018-06-22T01:46:03.677Z,13.10
2018-06-22T01:48:33.288Z,13.10
2018-06-22T01:51:02.828Z,13.10
2018-06-22T01:53:32.628Z,13.10
2018-06-22T01:56:02.403Z,13.10
2018-06-22T01:58:31.866Z,13.10
2018-06-22T02:01:01.669Z,13.10
2018-06-22T02:03:31.761Z,13.10
2018-06-22T02:06:01.365Z,13.10
2018-06-22T02:08:31.102Z,13.20
2018-06-22T02:11:01.346Z,13.20
2018-06-22T02:13:31.257Z,13.30
2018-06-22T02:16:00.769Z,13.30
2018-06-22T02:18:30.350Z,13.30
2018-06-22T02:21:00.943Z,13.40
2018-06-22T02:23:30.553Z,13.40
2018-06-22T02:26:00.239Z,13.30
2018-06-22T02:28:29.662Z,13.20
2018-06-22T02:30:59.135Z,13.20
2018-06-22T02:33:28.700Z,13.10
2018-06-22T02:35:58.439Z,13.10
2018-06-22T02:38:28.018Z,13.10
2018-06-22T02:41:02.888Z,13.10
2018-06-22T02:43:32.386Z,13.10
2018-06-22T02:46:02.517Z,13.20
2018-06-22T02:48:32.729Z,13.20
2018-06-22T02:51:02.514Z,13.20
2018-06-22T02:53:32.124Z,13.30
2018-06-22T02:56:01.601Z,13.40
2018-06-22T02:58:31.158Z,13.40
2018-06-22T03:01:00.693Z,13.50
2018-06-22T03:03:30.139Z,13.50
2018-06-22T03:05:59.659Z,13.50
2018-06-22T03:11:23.340Z,13.50
2018-06-22T03:13:53.888Z,13.50
2018-06-22T03:16:23.471Z,13.50
2018-06-22T03:18:53.113Z,13.40
2018-06-22T03:23:51.379Z,13.30
2018-06-22T03:26:26.207Z,13.30
2018-06-22T03:28:55.853Z,13.20
2018-06-22T03:31:25.326Z,13.10
2018-06-22T03:33:55.162Z,13.10
2018-06-22T03:36:29.143Z,13.00
2018-06-22T03:38:58.928Z,13.00
2018-06-22T03:41:29.689Z,13.00
2018-06-22T03:43:59.326Z,12.90
2018-06-22T03:46:29.034Z,12.90
2018-06-22T03:48:58.478Z,12.90
2018-06-22T03:51:28.014Z,12.90
2018-06-22T03:53:57.886Z,12.90
2018-06-22T03:56:27.494Z,12.90
2018-06-22T03:58:57.080Z,12.90
2018-06-22T04:01:26.729Z,12.90
2018-06-22T04:03:56.192Z,12.90
2018-06-22T04:06:36.647Z,12.90
2018-06-22T04:09:07.149Z,12.90
2018-06-22T04:11:36.642Z,12.90
2018-06-22T04:14:06.368Z,12.90
2018-06-22T04:16:36.109Z,12.80
2018-06-22T04:19:05.603Z,12.80
2018-06-22T04:21:35.015Z,12.90
2018-06-22T04:24:04.648Z,12.90
2018-06-22T04:32:34.202Z,12.90
2018-06-22T04:35:03.420Z,12.90
2018-06-22T04:37:32.821Z,12.90
2018-06-22T04:40:02.202Z,12.90
2018-06-22T04:42:32.560Z,13.00
2018-06-22T04:45:01.778Z,13.00
2018-06-22T04:47:32.773Z,13.10
2018-06-22T04:50:03.226Z,13.10
2018-06-22T04:52:37.047Z,13.20
2018-06-22T04:55:06.483Z,13.30
2018-06-22T04:57:35.949Z,13.40
2018-06-22T05:00:16.313Z,13.50
2018-06-22T05:02:46.002Z,13.60
2018-06-22T05:05:15.290Z,13.60
2018-06-22T05:10:14.787Z,13.70
2018-06-22T05:12:44.300Z,13.70
2018-06-22T05:15:13.588Z,13.80
2018-06-22T05:20:19.843Z,14.00
2018-06-22T05:22:49.381Z,14.00
2018-06-22T05:25:37.996Z,14.10
2018-06-22T05:28:07.544Z,14.20
2018-06-22T05:30:37.195Z,14.20
2018-06-22T05:33:06.618Z,14.20
2018-06-22T05:35:35.930Z,14.20
2018-06-22T05:38:06.536Z,14.30
2018-06-22T05:40:36.337Z,14.30
2018-06-22T05:45:35.011Z,14.30
2018-06-22T05:48:04.488Z,14.40
2018-06-22T05:50:33.763Z,14.40
2018-06-22T05:53:03.377Z,14.50
2018-06-22T05:55:32.835Z,14.50
2018-06-22T05:58:02.201Z,14.50
2018-06-22T06:00:32.117Z,14.50
2018-06-22T06:03:01.599Z,14.50
2018-06-22T06:05:30.936Z,14.50
2018-06-22T06:08:00.383Z,14.60
2018-06-22T06:10:29.915Z,14.70
2018-06-22T06:12:59.522Z,14.70
2018-06-22T06:15:29.121Z,14.70
2018-06-22T06:17:59.059Z,14.80
2018-06-22T06:20:28.679Z,14.80
2018-06-22T06:22:58.141Z,14.90
2018-06-22T06:25:27.561Z,14.90
2018-06-22T06:30:56.797Z,14.90
2018-06-22T06:33:26.262Z,14.80
2018-06-22T06:35:55.752Z,14.80
2018-06-22T06:38:25.208Z,14.80
2018-06-22T06:40:54.881Z,14.80
2018-06-22T06:43:24.519Z,14.80
2018-06-22T06:45:53.993Z,14.90
2018-06-22T06:48:23.616Z,14.90
2018-06-22T06:50:53.109Z,14.90
2018-06-22T06:53:22.614Z,15.00
2018-06-22T06:55:52.386Z,15.00
2018-06-22T06:58:25.720Z,15.10
2018-06-22T07:00:55.196Z,15.20
2018-06-22T07:03:24.670Z,15.30
2018-06-22T07:05:54.226Z,15.40
2018-06-22T07:08:23.755Z,15.50
2018-06-22T07:10:53.202Z,15.60
2018-06-22T07:13:22.649Z,15.70
2018-06-22T07:15:52.048Z,15.70
2018-06-22T07:18:21.468Z,15.80
2018-06-22T07:20:50.841Z,15.90
2018-06-22T07:23:20.432Z,15.90
2018-06-22T07:25:50.246Z,15.90
2018-06-22T07:28:19.881Z,15.90
2018-06-22T07:30:49.567Z,15.90
2018-06-22T07:33:19.084Z,15.80
2018-06-22T07:35:48.651Z,15.80
2018-06-22T07:38:18.059Z,15.80
2018-06-22T07:40:53.664Z,15.90
2018-06-22T07:43:23.445Z,15.90
2018-06-22T07:45:53.065Z,16.00
2018-06-22T07:48:26.896Z,16.20
2018-06-22T07:50:56.396Z,16.30
2018-06-22T07:53:25.971Z,17.00
2018-06-22T07:55:55.505Z,16.50
2018-06-22T07:58:25.056Z,16.50
2018-06-22T08:00:54.775Z,16.40
2018-06-22T08:03:24.305Z,16.30
2018-06-22T08:05:53.667Z,16.30
2018-06-22T08:08:41.040Z,16.30
2018-06-22T08:11:10.429Z,16.40
2018-06-22T08:13:39.838Z,16.30
2018-06-22T08:16:09.573Z,16.20
2018-06-22T08:18:39.305Z,16.20
2018-06-22T08:21:08.682Z,16.20
2018-06-22T08:23:38.215Z,16.30
2018-06-22T08:26:07.841Z,16.30
2018-06-22T08:28:37.257Z,16.30
2018-06-22T08:31:06.676Z,16.30
2018-06-22T08:33:36.257Z,16.30
2018-06-22T08:38:34.773Z,16.20
2018-06-22T08:43:33.223Z,16.30
2018-06-22T08:46:02.609Z,16.50
2018-06-22T08:51:01.093Z,17.00
2018-06-22T08:53:30.683Z,17.10
2018-06-22T08:56:00.100Z,17.20
2018-06-22T08:58:29.744Z,17.00
2018-06-22T09:00:59.195Z,16.90
2018-06-22T09:03:28.773Z,16.60
2018-06-22T09:05:58.195Z,16.20
2018-06-22T09:08:27.744Z,15.90
2018-06-22T09:10:57.239Z,15.80
2018-06-22T09:13:26.747Z,15.90
2018-06-22T09:15:56.321Z,16.00
2018-06-22T09:18:25.720Z,16.20
2018-06-22T09:20:55.388Z,16.30
2018-06-22T09:23:24.838Z,16.30
2018-06-22T09:25:54.490Z,16.30
2018-06-22T09:30:53.118Z,16.00
2018-06-22T09:33:22.694Z,15.60
2018-06-22T09:35:52.239Z,15.10
2018-06-22T09:38:21.710Z,14.70
2018-06-22T09:40:51.218Z,14.60
2018-06-22T09:43:20.607Z,14.60
2018-06-22T09:45:49.938Z,14.70
2018-06-22T09:48:19.637Z,14.90
2018-06-22T09:50:49.147Z,15.20
2018-06-22T09:55:48.275Z,15.70
2018-06-22T09:58:17.795Z,15.90
2018-06-22T10:00:52.087Z,16.20
2018-06-22T10:03:23.105Z,16.50
2018-06-22T10:05:52.681Z,16.90
2018-06-22T10:08:22.144Z,17.10
2018-06-22T10:10:51.542Z,17.10
2018-06-22T10:13:21.542Z,17.10
2018-06-22T10:15:54.170Z,17.10
2018-06-22T10:18:25.259Z,17.00
2018-06-22T10:20:54.988Z,17.00
2018-06-22T10:23:24.401Z,17.00
2018-06-22T10:25:54.033Z,17.10
2018-06-22T10:28:23.573Z,17.30
2018-06-22T10:30:53.227Z,17.50
2018-06-22T10:33:22.631Z,17.60
2018-06-22T10:35:52.301Z,17.60
2018-06-22T10:38:21.742Z,17.60
2018-06-22T10:40:51.575Z,17.80
2018-06-22T10:43:21.461Z,17.90
2018-06-22T10:45:51.116Z,17.90
2018-06-22T10:48:20.667Z,18.00
2018-06-22T10:50:50.090Z,18.10
2018-06-22T10:53:19.636Z,18.10
2018-06-22T10:55:49.268Z,18.30
2018-06-22T10:58:18.963Z,18.40
2018-06-22T11:00:48.506Z,18.60
2018-06-22T11:03:18.182Z,18.70
2018-06-22T11:05:47.723Z,18.70
2018-06-22T11:08:17.226Z,18.70
2018-06-22T11:10:46.927Z,18.40
2018-06-22T11:13:16.452Z,18.60
2018-06-22T11:15:46.586Z,18.50
2018-06-22T11:18:15.980Z,18.40
2018-06-22T11:20:45.457Z,18.30
2018-06-22T11:23:15.030Z,18.00
2018-06-22T11:28:13.996Z,17.40
2018-06-22T11:30:43.853Z,17.20
2018-06-22T11:33:13.389Z,16.90
2018-06-22T11:35:43.131Z,16.70
2018-06-22T11:38:12.510Z,16.50
2018-06-22T11:40:41.994Z,16.40
2018-06-22T11:43:11.435Z,16.30
2018-06-22T11:45:41.045Z,16.40
2018-06-22T11:48:10.555Z,16.50
2018-06-22T11:50:39.949Z,16.50
2018-06-22T11:53:09.459Z,16.70
2018-06-22T11:55:38.887Z,17.10
2018-06-22T11:58:08.368Z,17.70
2018-06-22T12:00:39.712Z,18.60
2018-06-22T12:03:09.135Z,19.50
2018-06-22T12:05:38.621Z,20.10
2018-06-22T12:08:08.278Z,20.90
2018-06-22T12:10:37.798Z,21.60
2018-06-22T12:13:07.715Z,22.20
2018-06-22T12:15:37.351Z,22.50
2018-06-22T12:18:06.876Z,23.10
2018-06-22T12:20:36.206Z,23.90
2018-06-22T12:23:05.810Z,24.30
2018-06-22T12:25:35.205Z,24.50
2018-06-22T12:28:04.696Z,24.30
2018-06-22T12:30:34.078Z,23.90
2018-06-22T12:33:03.563Z,23.20
2018-06-22T12:35:32.977Z,22.60
2018-06-22T12:38:02.505Z,22.10
2018-06-22T12:40:32.154Z,21.80
2018-06-22T12:43:02.529Z,21.60
2018-06-22T12:45:32.170Z,21.60
2018-06-22T12:48:01.572Z,22.50
2018-06-22T12:50:31.203Z,23.30
2018-06-22T12:53:00.790Z,23.60
2018-06-22T12:55:30.252Z,23.70
2018-06-22T12:57:59.542Z,23.50
2018-06-22T13:03:32.047Z,23.10
2018-06-22T13:06:18.910Z,23.10
2018-06-22T13:09:02.950Z,22.90
2018-06-22T13:11:33.413Z,22.70
2018-06-22T13:14:02.978Z,22.40
2018-06-22T13:16:32.372Z,22.00
2018-06-22T13:19:03.568Z,21.50
2018-06-22T13:21:42.555Z,21.30
2018-06-22T13:24:16.394Z,22.10
2018-06-22T13:29:20.496Z,24.10
2018-06-22T13:31:57.834Z,23.80
2018-06-22T13:34:28.860Z,22.90
2018-06-22T13:36:58.239Z,21.80
2018-06-22T13:39:28.414Z,20.70
2018-06-22T13:41:58.294Z,19.80
2018-06-22T13:44:27.721Z,19.20
2018-06-22T13:46:57.162Z,18.70
2018-06-22T13:49:26.575Z,18.30
2018-06-22T13:51:56.094Z,18.10
2018-06-22T13:54:25.632Z,17.90
2018-06-22T13:56:55.516Z,17.90
2018-06-22T13:59:33.345Z,18.00
2018-06-22T14:02:26.514Z,18.80
2018-06-22T14:05:02.616Z,20.50
2018-06-22T14:07:56.715Z,22.00
2018-06-22T14:10:26.509Z,22.70
2018-06-22T14:12:55.895Z,22.80
2018-06-22T14:15:25.522Z,22.60
2018-06-22T14:17:54.977Z,22.20
2018-06-22T14:20:24.553Z,21.70
2018-06-22T14:22:54.260Z,21.30
2018-06-22T14:25:23.815Z,21.00
2018-06-22T14:27:53.204Z,20.70
2018-06-22T14:30:22.808Z,20.50
2018-06-22T14:33:04.966Z,20.20
2018-06-22T14:35:34.443Z,20.10
2018-06-22T14:38:04.653Z,20.10
2018-06-22T14:40:34.151Z,20.20
2018-06-22T14:43:03.605Z,20.20
2018-06-22T14:45:33.258Z,20.30
2018-06-22T14:48:02.873Z,20.30
2018-06-22T14:50:32.674Z,20.50
2018-06-22T14:53:02.083Z,20.90
2018-06-22T14:55:38.844Z,21.50
2018-06-22T14:58:13.570Z,22.40
2018-06-22T15:00:48.886Z,23.20
2018-06-22T15:03:25.806Z,23.50
2018-06-22T15:06:01.137Z,23.70
2018-06-22T15:08:32.066Z,23.70
2018-06-22T15:11:04.108Z,23.50
2018-06-22T15:13:33.953Z,22.80
2018-06-22T15:16:04.089Z,22.20
2018-06-22T15:18:33.624Z,21.60
2018-06-22T15:21:03.289Z,21.00
2018-06-22T15:23:34.713Z,20.40
2018-06-22T15:26:06.908Z,20.40
2018-06-22T15:28:36.975Z,20.90
2018-06-22T15:31:06.732Z,21.60
2018-06-22T15:33:43.591Z,22.30
2018-06-22T15:36:18.375Z,23.10
2018-06-22T15:38:53.167Z,24.20
2018-06-22T15:41:28.158Z,25.20
2018-06-22T15:44:04.960Z,26.20
2018-06-22T15:46:39.672Z,27.00
2018-06-22T15:49:21.633Z,27.10
2018-06-22T15:51:56.705Z,27.10
2018-06-22T15:54:31.427Z,26.40
2018-06-22T15:57:01.046Z,25.50
2018-06-22T15:59:30.755Z,24.70
2018-06-22T16:02:04.355Z,24.00
2018-06-22T16:04:34.115Z,23.30
2018-06-22T16:07:04.083Z,22.70
2018-06-22T16:09:38.222Z,22.10
2018-06-22T16:12:17.808Z,21.50
2018-06-22T16:14:53.829Z,20.90
2018-06-22T16:17:28.760Z,20.20
2018-06-22T16:20:03.669Z,19.60
2018-06-22T16:25:12.618Z,18.80
2018-06-22T16:27:45.919Z,18.50
2018-06-22T16:32:44.642Z,18.70
2018-06-22T16:35:14.152Z,19.40
2018-06-22T16:37:43.627Z,20.40
2018-06-22T16:40:12.992Z,21.40
2018-06-22T16:42:42.745Z,22.40
2018-06-22T16:45:12.355Z,22.70
2018-06-22T16:47:42.023Z,22.70
2018-06-22T16:50:11.409Z,22.50
2018-06-22T16:52:41.926Z,22.20
2018-06-22T16:55:16.589Z,21.70
2018-06-22T16:57:47.806Z,21.30
2018-06-22T17:00:17.691Z,20.90
2018-06-22T17:02:47.429Z,20.50
2018-06-22T17:05:17.256Z,20.20
2018-06-22T17:07:52.200Z,20.00
2018-06-22T17:15:06.453Z,19.50
2018-06-22T17:17:44.406Z,19.30
2018-06-22T17:20:14.286Z,18.30
2018-06-22T17:22:43.890Z,17.30
2018-06-22T17:25:14.649Z,16.60
2018-06-22T17:27:46.147Z,16.10
2018-06-22T17:30:17.130Z,15.70
2018-06-22T17:32:47.333Z,15.50
2018-06-22T17:35:16.842Z,15.50
2018-06-22T17:37:46.682Z,15.60
2018-06-22T17:40:22.522Z,15.90
2018-06-22T17:46:04.029Z,17.10
2018-06-22T17:48:37.050Z,17.80
2018-06-22T17:51:10.614Z,18.00
2018-06-22T17:53:41.416Z,18.00
2018-06-22T17:56:16.342Z,17.90
2018-06-22T18:01:25.315Z,17.60
2018-06-22T18:04:00.212Z,17.50
2018-06-22T18:06:35.039Z,17.40
2018-06-22T18:11:44.708Z,17.10
2018-06-22T18:14:14.246Z,17.00
2018-06-22T18:16:46.963Z,16.80
2018-06-22T18:19:17.003Z,16.70
2018-06-22T18:21:47.530Z,16.50
2018-06-22T18:24:17.136Z,16.40
2018-06-22T18:26:46.687Z,16.30
2018-06-22T18:29:21.711Z,16.20
2018-06-22T18:31:51.618Z,16.00
2018-06-22T18:34:21.523Z,15.80
2018-06-22T18:36:51.933Z,15.60
2018-06-22T18:39:21.698Z,15.40
2018-06-22T18:41:57.930Z,15.30
2018-06-22T18:44:30.867Z,15.20
2018-06-22T18:47:01.159Z,15.10
2018-06-22T18:49:31.249Z,15.10
2018-06-22T18:53:08.406Z,15.00
2018-06-22T18:55:43.722Z,15.00
2018-06-22T18:58:20.100Z,14.80
2018-06-22T19:00:56.038Z,14.80
2018-06-22T19:03:31.453Z,14.70
2018-06-22T19:06:05.338Z,14.60
2018-06-22T19:08:35.376Z,14.60
2018-06-22T19:11:13.098Z,14.60
2018-06-22T19:13:43.158Z,14.50
2018-06-22T19:16:13.085Z,14.50
2018-06-22T19:18:43.026Z,14.50
2018-06-22T19:21:14.647Z,14.50
2018-06-22T19:23:44.659Z,14.40
2018-06-22T19:26:14.155Z,14.40
2018-06-22T19:28:46.757Z,14.30
2018-06-22T19:31:18.128Z,14.20
2018-06-22T19:33:53.463Z,14.20
2018-06-22T19:36:23.510Z,14.20
2018-06-22T19:38:53.589Z,14.20
2018-06-22T19:41:24.065Z,14.10
2018-06-22T19:44:01.874Z,14.10
2018-06-22T19:46:37.167Z,14.10
2018-06-22T19:49:12.364Z,14.10
2018-06-22T19:51:47.975Z,14.10
2018-06-22T19:54:19.261Z,14.10
2018-06-22T19:56:48.941Z,14.10
2018-06-22T19:59:18.607Z,14.10
2018-06-22T20:01:49.148Z,14.10
2018-06-22T20:04:18.926Z,14.10
2018-06-22T20:06:48.725Z,14.20
2018-06-22T20:09:18.410Z,14.10
2018-06-22T20:11:48.121Z,14.20
2018-06-22T20:14:19.316Z,14.20
2018-06-22T20:16:48.920Z,14.30
2018-06-22T20:19:21.727Z,14.30
2018-06-22T20:24:26.080Z,14.40
2018-06-22T20:26:56.251Z,14.40
2018-06-22T20:29:26.581Z,14.50
2018-06-22T20:31:56.085Z,14.50
2018-06-22T20:34:31.153Z,14.60
2018-06-22T20:37:06.325Z,14.60
2018-06-22T20:39:41.493Z,14.60
2018-06-22T20:42:16.355Z,14.60
2018-06-22T20:45:54.655Z,14.60
2018-06-22T20:48:29.460Z,14.70
2018-06-22T20:54:04.073Z,14.70
2018-06-22T20:56:34.470Z,14.70
2018-06-22T20:59:03.819Z,14.70
2018-06-22T21:01:33.865Z,14.70
2018-06-22T21:04:03.640Z,14.70
2018-06-22T21:06:33.403Z,14.70
2018-06-22T21:09:03.140Z,14.70
2018-06-22T21:11:32.666Z,14.60
2018-06-22T21:14:02.399Z,14.60
2018-06-22T21:16:34.098Z,14.60
2018-06-22T21:19:03.544Z,14.60
2018-06-22T21:21:38.141Z,14.60
2018-06-22T21:26:36.517Z,14.60
2018-06-22T21:29:11.096Z,14.50
2018-06-22T21:31:45.960Z,14.50
2018-06-22T21:34:20.826Z,14.50
2018-06-22T21:36:55.478Z,14.50
2018-06-22T21:39:24.828Z,14.40
2018-06-22T21:41:54.228Z,14.40
2018-06-22T21:44:23.567Z,14.40
2018-06-22T21:46:56.250Z,14.40
2018-06-22T21:49:25.571Z,14.30
2018-06-22T21:51:55.162Z,14.30
2018-06-22T21:54:29.566Z,14.20
2018-06-22T21:56:59.088Z,14.20
2018-06-22T21:59:28.628Z,14.20
2018-06-22T22:01:58.210Z,14.10
2018-06-22T22:04:32.538Z,14.10
2018-06-22T22:07:02.176Z,14.10
2018-06-22T22:09:39.046Z,14.10
2018-06-22T22:12:08.670Z,14.10
2018-06-22T22:14:38.779Z,14.00
2018-06-22T22:17:08.389Z,14.00
2018-06-22T22:19:38.450Z,14.00
2018-06-22T22:24:37.369Z,14.00
2018-06-22T22:27:07.025Z,14.00
2018-06-22T22:29:36.590Z,14.00
2018-06-22T22:32:06.097Z,14.00
2018-06-22T22:34:35.480Z,14.00
2018-06-22T22:37:04.966Z,13.90
2018-06-22T22:39:34.300Z,13.90
2018-06-22T22:42:04.097Z,13.90
2018-06-22T22:44:33.653Z,13.80
2018-06-22T22:47:03.082Z,13.80
2018-06-22T22:49:32.737Z,13.80
2018-06-22T22:52:02.687Z,13.80
2018-06-22T22:54:32.088Z,13.80
2018-06-22T22:57:01.614Z,13.80
2018-06-22T22:59:30.983Z,13.80
2018-06-22T23:02:00.758Z,13.80
2018-06-22T23:04:30.571Z,13.80
2018-06-22T23:07:00.304Z,13.80
2018-06-22T23:09:29.893Z,13.80
2018-06-22T23:11:59.566Z,13.90
2018-06-22T23:14:29.686Z,13.80
2018-06-22T23:16:59.217Z,13.90
2018-06-22T23:19:28.863Z,13.90
2018-06-22T23:21:59.961Z,13.90
2018-06-22T23:24:29.286Z,13.90
2018-06-22T23:26:58.857Z,13.90
2018-06-22T23:29:28.165Z,13.90
2018-06-22T23:31:57.704Z,13.90
2018-06-22T23:34:27.491Z,13.90
2018-06-22T23:36:57.182Z,13.90
2018-06-22T23:39:26.670Z,13.90
2018-06-22T23:44:26.768Z,14.00
2018-06-22T23:46:56.223Z,14.00
2018-06-22T23:49:25.950Z,14.00
2018-06-22T23:54:24.572Z,14.10
2018-06-22T23:56:54.330Z,14.10
2018-06-22T23:59:23.718Z,14.10
